Time;durP1;ratioP1;P1;durP2;ratioP2;P2;SDS_P1;SDS_P2;PMS_P1;PMS_P2;Temp;Humidity;BMP_temperature;BMP_pressure;BME280_temperature;BME280_humidity;BME280_pressure;Samples;Min_cycle;Max_cycle;Signal;HPM_P1;HPM_P2
2023/08/16 00:04:52;;;;;;;6.47;5.88;;;;;;;;;;10430426;28;20467;-87
2023/08/16 00:09:56;;;;;;;7.90;6.25;;;;;;;;;;10432765;28;20469;-87
2023/08/16 00:14:58;;;;;;;7.00;6.32;;;;;;;;;;10430773;28;20834;-87
2023/08/16 00:20:00;;;;;;;6.63;5.93;;;;;;;;;;10433611;28;20438;-87
2023/08/16 00:25:06;;;;;;;6.57;6.00;;;;;;;;;;10433417;28;20412;-86
2023/08/16 00:30:09;;;;;;;6.53;5.80;;;;;;;;;;10413449;28;20406;-87
2023/08/16 00:35:11;;;;;;;6.60;5.93;;;;;;;;;;10430714;28;20412;-87
2023/08/16 00:40:15;;;;;;;6.00;5.03;;;;;;;;;;10431724;28;20405;-86
2023/08/16 00:45:17;;;;;;;5.20;4.70;;;;;;;;;;10430246;28;20473;-87
2023/08/16 00:50:23;;;;;;;5.47;4.45;;;;;;;;;;10433033;28;20442;-87
2023/08/16 00:55:27;;;;;;;5.18;4.78;;;;;;;;;;10430178;28;20762;-86
2023/08/16 01:00:30;;;;;;;6.72;6.00;;;;;;;;;;10430840;28;20408;-86
2023/08/16 01:05:33;;;;;;;6.35;5.75;;;;;;;;;;10414673;28;20428;-87
2023/08/16 01:10:46;;;;;;;6.13;5.53;;;;;;;;;;10432102;28;20457;-86
2023/08/16 01:15:50;;;;;;;5.80;5.30;;;;;;;;;;10410372;28;20409;-87
2023/08/16 01:20:55;;;;;;;8.10;5.50;;;;;;;;;;10409973;28;20475;-85
2023/08/16 01:26:08;;;;;;;5.45;4.95;;;;;;;;;;10424734;28;20817;-87
2023/08/16 01:31:12;;;;;;;6.43;5.13;;;;;;;;;;10409834;28;20753;-87
2023/08/16 01:36:14;;;;;;;5.55;4.70;;;;;;;;;;10409419;28;20937;-86
2023/08/16 01:41:21;;;;;;;4.87;4.43;;;;;;;;;;10431396;28;20734;-86
2023/08/16 01:46:27;;;;;;;4.87;4.37;;;;;;;;;;10428387;28;20793;-86
2023/08/16 01:51:29;;;;;;;4.47;4.03;;;;;;;;;;10430804;28;20407;-87
2023/08/16 01:56:31;;;;;;;4.80;4.35;;;;;;;;;;10439000;28;20419;-86
2023/08/16 02:01:35;;;;;;;4.53;4.13;;;;;;;;;;10438540;28;20404;-86
2023/08/16 02:06:37;;;;;;;4.60;4.20;;;;;;;;;;10435674;28;20494;-86
2023/08/16 02:11:39;;;;;;;5.78;4.85;;;;;;;;;;10416567;28;20402;-86
2023/08/16 02:16:43;;;;;;;5.38;4.88;;;;;;;;;;10415680;28;20413;-87
2023/08/16 02:21:45;;;;;;;8.30;5.37;;;;;;;;;;10430899;28;20465;-86
2023/08/16 02:26:48;;;;;;;5.47;5.07;;;;;;;;;;10435181;28;20427;-86
2023/08/16 02:31:51;;;;;;;5.95;5.45;;;;;;;;;;10438231;28;20825;-86
2023/08/16 02:36:54;;;;;;;5.60;5.10;;;;;;;;;;10430707;28;20410;-85
2023/08/16 02:41:56;;;;;;;4.97;4.57;;;;;;;;;;10437683;28;20412;-85
2023/08/16 02:47:00;;;;;;;5.43;4.93;;;;;;;;;;10434511;28;20483;-87
2023/08/16 02:52:02;;;;;;;6.07;5.20;;;;;;;;;;10435645;28;20445;-87
2023/08/16 02:57:04;;;;;;;6.40;5.03;;;;;;;;;;10435318;28;20420;-87
2023/08/16 03:02:08;;;;;;;6.00;5.45;;;;;;;;;;10432826;28;20402;-86
2023/08/16 03:07:12;;;;;;;6.60;5.50;;;;;;;;;;10436031;28;20424;-87
2023/08/16 03:12:15;;;;;;;6.07;5.47;;;;;;;;;;10434282;28;20414;-86
2023/08/16 03:17:18;;;;;;;6.50;5.77;;;;;;;;;;10435927;28;20409;-86
2023/08/16 03:22:21;;;;;;;6.38;5.78;;;;;;;;;;10437231;28;20420;-85
2023/08/16 03:27:23;;;;;;;7.50;5.70;;;;;;;;;;10434363;28;20497;-87
2023/08/16 03:32:27;;;;;;;6.53;5.80;;;;;;;;;;10431946;28;20434;-86
2023/08/16 03:37:29;;;;;;;6.53;5.93;;;;;;;;;;10435379;28;20408;-87
2023/08/16 03:42:31;;;;;;;6.43;5.80;;;;;;;;;;10432690;28;20463;-87
2023/08/16 03:47:35;;;;;;;6.20;5.70;;;;;;;;;;10433535;28;20428;-86
2023/08/16 03:52:37;;;;;;;7.95;5.70;;;;;;;;;;10433672;28;20410;-86
2023/08/16 03:57:40;;;;;;;6.37;5.60;;;;;;;;;;10432372;28;20414;-86
2023/08/16 04:02:43;;;;;;;6.70;5.50;;;;;;;;;;10434906;28;20407;-86
2023/08/16 04:07:45;;;;;;;7.13;5.28;;;;;;;;;;10411745;28;20417;-86
2023/08/16 04:12:48;;;;;;;6.10;5.50;;;;;;;;;;10411707;28;20417;-86
2023/08/16 04:17:52;;;;;;;6.20;5.60;;;;;;;;;;10426347;28;20416;-86
2023/08/16 04:22:54;;;;;;;6.00;5.33;;;;;;;;;;10429371;28;20506;-86
2023/08/16 04:27:56;;;;;;;6.17;5.57;;;;;;;;;;10433474;28;20502;-87
2023/08/16 04:33:00;;;;;;;5.85;5.30;;;;;;;;;;10432668;28;20408;-86
2023/08/16 04:38:02;;;;;;;5.63;5.00;;;;;;;;;;10433022;28;20916;-86
2023/08/16 04:43:04;;;;;;;5.90;5.30;;;;;;;;;;10431014;28;20397;-87
2023/08/16 04:48:09;;;;;;;5.43;4.90;;;;;;;;;;10430050;28;20412;-86
2023/08/16 04:53:12;;;;;;;5.43;4.70;;;;;;;;;;10431925;28;20407;-87
2023/08/16 04:58:14;;;;;;;5.43;4.93;;;;;;;;;;10430304;28;20468;-87
2023/08/16 05:03:18;;;;;;;5.55;5.05;;;;;;;;;;10410011;28;20405;-86
2023/08/16 05:08:20;;;;;;;5.63;4.60;;;;;;;;;;10409649;28;20463;-86
2023/08/16 05:13:23;;;;;;;5.70;4.70;;;;;;;;;;10424056;28;20446;-86
2023/08/16 05:18:26;;;;;;;5.65;4.82;;;;;;;;;;10430645;28;20460;-86
2023/08/16 05:23:29;;;;;;;6.47;5.80;;;;;;;;;;10428658;28;20418;-86
2023/08/16 05:28:31;;;;;;;7.22;5.55;;;;;;;;;;10436885;28;20407;-86
2023/08/16 05:33:35;;;;;;;6.65;5.38;;;;;;;;;;10417803;28;20471;-86
2023/08/16 05:38:37;;;;;;;7.07;5.43;;;;;;;;;;10417865;28;20467;-86
2023/08/16 05:43:39;;;;;;;7.60;5.50;;;;;;;;;;10424092;28;20416;-85
2023/08/16 05:48:44;;;;;;;5.32;4.50;;;;;;;;;;10437455;28;20413;-87
2023/08/16 05:53:46;;;;;;;4.93;4.40;;;;;;;;;;10436589;28;20923;-86
2023/08/16 05:58:48;;;;;;;5.27;4.43;;;;;;;;;;10439240;28;20408;-86
2023/08/16 06:03:52;;;;;;;4.63;4.23;;;;;;;;;;10436010;28;20414;-86
2023/08/16 06:08:54;;;;;;;4.95;4.40;;;;;;;;;;10437256;28;20403;-86
2023/08/16 06:13:56;;;;;;;5.43;4.93;;;;;;;;;;10436860;28;20862;-86
2023/08/16 06:19:00;;;;;;;5.00;4.50;;;;;;;;;;10436262;28;20404;-86
2023/08/16 06:24:03;;;;;;;5.90;4.60;;;;;;;;;;10437922;28;20745;-86
2023/08/16 06:29:05;;;;;;;7.05;4.90;;;;;;;;;;10434986;28;20872;-86
2023/08/16 06:34:09;;;;;;;5.68;4.30;;;;;;;;;;10433780;28;20440;-86
2023/08/16 06:39:11;;;;;;;6.18;4.90;;;;;;;;;;10433519;28;20471;-87
2023/08/16 06:44:13;;;;;;;5.75;4.72;;;;;;;;;;10435970;28;20415;-85
2023/08/16 06:49:17;;;;;;;5.53;4.70;;;;;;;;;;10437543;28;20491;-86
2023/08/16 06:54:19;;;;;;;5.32;4.68;;;;;;;;;;10436441;28;20411;-86
2023/08/16 06:59:22;;;;;;;4.90;4.30;;;;;;;;;;10436635;28;20400;-86
2023/08/16 07:04:25;;;;;;;6.45;4.53;;;;;;;;;;10433678;28;20425;-87
2023/08/16 07:09:28;;;;;;;5.35;4.60;;;;;;;;;;10435819;28;20405;-86
2023/08/16 07:14:31;;;;;;;7.18;4.50;;;;;;;;;;10433942;28;20412;-86
2023/08/16 07:19:34;;;;;;;7.00;4.93;;;;;;;;;;10435596;28;20466;-87
2023/08/16 07:24:36;;;;;;;5.13;4.63;;;;;;;;;;10431981;28;20462;-86
2023/08/16 07:29:39;;;;;;;4.85;4.38;;;;;;;;;;10432231;28;20402;-87
2023/08/16 07:34:43;;;;;;;6.75;4.60;;;;;;;;;;10433330;28;20415;-87
2023/08/16 07:39:45;;;;;;;5.57;4.57;;;;;;;;;;10431138;28;20891;-86
2023/08/16 07:44:47;;;;;;;5.30;4.77;;;;;;;;;;10433815;28;20425;-87
2023/08/16 07:49:51;;;;;;;5.53;4.97;;;;;;;;;;10434087;28;20404;-87
2023/08/16 07:54:55;;;;;;;5.70;4.57;;;;;;;;;;10430855;28;20425;-87
2023/08/16 07:59:57;;;;;;;6.10;4.90;;;;;;;;;;10416251;28;20450;-86
2023/08/16 08:05:01;;;;;;;6.35;4.63;;;;;;;;;;10432396;28;20913;-87
2023/08/16 08:10:03;;;;;;;6.15;5.13;;;;;;;;;;10432560;28;20404;-86
2023/08/16 08:15:09;;;;;;;4.82;4.32;;;;;;;;;;10433880;28;20547;-86
2023/08/16 08:20:14;;;;;;;6.20;4.90;;;;;;;;;;10430435;28;20877;-87
2023/08/16 08:25:16;;;;;;;6.10;5.00;;;;;;;;;;10434519;28;20495;-86
2023/08/16 08:30:19;;;;;;;8.10;5.47;;;;;;;;;;10414516;28;20407;-87
2023/08/16 08:35:22;;;;;;;5.32;4.53;;;;;;;;;;10432048;28;20401;-87
2023/08/16 08:40:25;;;;;;;5.75;5.15;;;;;;;;;;10430183;28;21181;-87
2023/08/16 08:45:28;;;;;;;5.45;4.95;;;;;;;;;;10432387;28;20485;-87
2023/08/16 08:50:33;;;;;;;5.65;5.15;;;;;;;;;;10429339;28;20471;-87
2023/08/16 08:55:37;;;;;;;6.00;4.80;;;;;;;;;;10430927;28;20454;-87
2023/08/16 09:00:40;;;;;;;6.65;4.90;;;;;;;;;;10430876;28;20899;-86
2023/08/16 09:05:46;;;;;;;5.60;5.10;;;;;;;;;;10430152;28;20452;-87
2023/08/16 09:10:49;;;;;;;5.55;4.97;;;;;;;;;;10410300;28;20409;-87
2023/08/16 09:15:51;;;;;;;9.07;5.40;;;;;;;;;;10409351;28;20413;-86
2023/08/16 09:20:58;;;;;;;7.32;5.13;;;;;;;;;;10419609;28;20405;-87
2023/08/16 09:26:00;;;;;;;5.57;5.00;;;;;;;;;;10428698;28;20432;-86
2023/08/16 09:31:06;;;;;;;9.30;6.82;;;;;;;;;;10432683;28;20450;-87
2023/08/16 09:36:10;;;;;;;6.28;5.68;;;;;;;;;;10410784;28;20402;-87
2023/08/16 09:41:18;;;;;;;9.98;5.30;;;;;;;;;;10409659;28;20405;-87
2023/08/16 09:46:22;;;;;;;6.10;5.50;;;;;;;;;;10424959;28;20452;-87
2023/08/16 09:51:27;;;;;;;6.37;5.30;;;;;;;;;;10435730;28;20399;-87
2023/08/16 09:56:33;;;;;;;5.60;5.07;;;;;;;;;;10429262;28;20467;-87
2023/08/16 10:01:36;;;;;;;5.50;5.00;;;;;;;;;;10429992;28;21009;-87
2023/08/16 10:06:40;;;;;;;5.63;4.95;;;;;;;;;;10430401;28;20930;-86
2023/08/16 10:11:44;;;;;;;6.55;5.15;;;;;;;;;;10427961;28;20460;-86
2023/08/16 10:16:50;;;;;;;5.50;5.00;;;;;;;;;;10437568;28;20412;-86
2023/08/16 10:21:54;;;;;;;5.50;5.00;;;;;;;;;;10437462;28;20889;-87
2023/08/16 10:26:59;;;;;;;5.90;4.95;;;;;;;;;;10436351;28;20479;-86
2023/08/16 10:32:02;;;;;;;5.60;5.10;;;;;;;;;;10438348;28;20543;-87
2023/08/16 10:37:07;;;;;;;5.95;5.38;;;;;;;;;;10435675;28;20878;-87
2023/08/16 10:42:15;;;;;;;7.78;5.22;;;;;;;;;;10436036;28;20473;-87
2023/08/16 10:47:28;;;;;;;5.72;5.10;;;;;;;;;;10437011;28;20423;-87
2023/08/16 10:52:32;;;;;;;6.43;5.22;;;;;;;;;;10415486;28;20466;-88
2023/08/16 10:57:35;;;;;;;6.18;4.78;;;;;;;;;;10414829;28;21073;-87
2023/08/16 11:02:39;;;;;;;5.70;5.20;;;;;;;;;;10428687;28;20407;-87
2023/08/16 11:07:45;;;;;;;6.15;5.55;;;;;;;;;;10433811;28;20476;-87
2023/08/16 11:12:49;;;;;;;6.20;5.60;;;;;;;;;;10414465;28;20421;-87
2023/08/16 11:17:51;;;;;;;5.87;5.10;;;;;;;;;;10415375;28;20428;-88
2023/08/16 11:22:55;;;;;;;5.73;5.23;;;;;;;;;;10419903;28;20456;-87
2023/08/16 11:28:01;;;;;;;6.10;5.10;;;;;;;;;;10433020;28;20425;-87
2023/08/16 11:33:05;;;;;;;5.65;5.15;;;;;;;;;;10435988;28;20403;-87
2023/08/16 11:38:09;;;;;;;5.10;4.68;;;;;;;;;;10433667;28;20451;-87
2023/08/16 11:43:11;;;;;;;6.10;5.50;;;;;;;;;;10433165;28;20405;-87
2023/08/16 11:48:15;;;;;;;6.72;5.43;;;;;;;;;;10433578;28;20427;-87
2023/08/16 11:53:20;;;;;;;5.57;4.95;;;;;;;;;;10432057;28;20401;-87
2023/08/16 11:58:22;;;;;;;6.32;5.40;;;;;;;;;;10432654;28;20479;-87
2023/08/16 12:03:24;;;;;;;5.75;5.25;;;;;;;;;;10433633;28;20559;-87
2023/08/16 12:08:28;;;;;;;5.75;5.20;;;;;;;;;;10433039;28;20503;-87
2023/08/16 12:13:30;;;;;;;7.90;5.28;;;;;;;;;;10431388;28;20422;-87
2023/08/16 12:18:33;;;;;;;6.90;4.95;;;;;;;;;;10431862;28;20409;-87
2023/08/16 12:23:37;;;;;;;5.93;5.05;;;;;;;;;;10434393;28;20396;-87
2023/08/16 12:28:39;;;;;;;8.48;5.18;;;;;;;;;;10430589;28;20421;-87
2023/08/16 12:33:43;;;;;;;6.72;5.40;;;;;;;;;;10433129;28;20404;-87
2023/08/16 12:38:47;;;;;;;5.45;4.95;;;;;;;;;;10431352;28;20483;-87
2023/08/16 12:43:49;;;;;;;5.85;5.35;;;;;;;;;;10430451;28;20794;-87
2023/08/16 12:48:51;;;;;;;5.97;5.38;;;;;;;;;;10433566;28;20419;-87
2023/08/16 12:53:55;;;;;;;5.97;5.37;;;;;;;;;;10477674;22;20410;-96
2023/08/16 12:58:58;;;;;;;5.85;5.35;;;;;;;;;;10537128;28;20424;-96
2023/08/16 13:04:01;;;;;;;5.70;5.15;;;;;;;;;;10511644;28;20484;-96
2023/08/16 13:09:09;;;;;;;5.60;5.00;;;;;;;;;;10494551;28;20429;-96
2023/08/16 13:14:12;;;;;;;5.90;5.40;;;;;;;;;;10499405;28;20434;-96
2023/08/16 13:19:16;;;;;;;5.80;5.30;;;;;;;;;;10503829;28;20420;-96
2023/08/16 13:24:20;;;;;;;5.60;5.10;;;;;;;;;;10510077;28;20396;-96
2023/08/16 13:29:23;;;;;;;6.93;5.38;;;;;;;;;;10525633;28;20420;-96
2023/08/16 13:34:25;;;;;;;6.15;5.57;;;;;;;;;;10504719;28;20438;-96
2023/08/16 13:39:30;;;;;;;6.15;5.55;;;;;;;;;;10518638;28;20406;-96
2023/08/16 13:44:33;;;;;;;6.35;5.75;;;;;;;;;;10510282;28;20420;-96
2023/08/16 13:49:35;;;;;;;17.23;6.20;;;;;;;;;;10522909;28;20415;-96
2023/08/16 13:54:39;;;;;;;5.90;5.30;;;;;;;;;;10514117;28;20408;-96
2023/08/16 13:59:44;;;;;;;6.23;5.73;;;;;;;;;;10497051;28;20408;-96
2023/08/16 14:04:48;;;;;;;5.70;5.20;;;;;;;;;;10505224;28;20404;-96
2023/08/16 14:09:53;;;;;;;6.20;5.60;;;;;;;;;;10546636;28;20444;-96
2023/08/16 14:14:55;;;;;;;5.72;5.22;;;;;;;;;;10530615;28;20428;-96
2023/08/16 14:19:58;;;;;;;6.40;5.80;;;;;;;;;;10516096;28;20406;-96
2023/08/16 14:25:03;;;;;;;6.10;5.60;;;;;;;;;;10516288;28;20400;-96
2023/08/16 14:30:06;;;;;;;6.00;5.50;;;;;;;;;;10532015;28;20903;-96
2023/08/16 14:35:09;;;;;;;5.70;5.20;;;;;;;;;;10525810;28;20420;-96
2023/08/16 14:40:14;;;;;;;6.30;5.13;;;;;;;;;;10522439;28;20452;-96
2023/08/16 14:45:16;;;;;;;6.53;5.60;;;;;;;;;;10517171;28;20428;-96
2023/08/16 14:50:19;;;;;;;7.38;5.70;;;;;;;;;;10503793;28;20407;-96
2023/08/16 14:55:25;;;;;;;5.82;5.22;;;;;;;;;;10503936;28;20398;-96
2023/08/16 15:00:27;;;;;;;6.32;5.47;;;;;;;;;;10527874;28;20488;-96
2023/08/16 15:05:30;;;;;;;5.75;5.25;;;;;;;;;;10521549;28;20398;-96
2023/08/16 15:10:34;;;;;;;6.40;5.82;;;;;;;;;;10517613;28;20412;-96
2023/08/16 15:15:42;;;;;;;5.63;5.22;;;;;;;;;;10506870;28;20972;-96
2023/08/16 15:20:46;;;;;;;5.97;5.38;;;;;;;;;;10537184;28;20424;-96
2023/08/16 15:25:50;;;;;;;5.97;5.47;;;;;;;;;;10517642;28;20408;-96
2023/08/16 15:30:56;;;;;;;5.67;5.13;;;;;;;;;;10526531;28;20436;-96
2023/08/16 15:35:59;;;;;;;6.07;5.55;;;;;;;;;;10517674;28;20400;-95
2023/08/16 15:41:03;;;;;;;6.00;5.50;;;;;;;;;;10532715;28;20428;-96
2023/08/16 15:46:06;;;;;;;6.05;5.55;;;;;;;;;;10511539;28;20438;-96
2023/08/16 15:51:09;;;;;;;6.13;5.53;;;;;;;;;;10514484;28;20421;-96
2023/08/16 15:56:13;;;;;;;5.80;5.30;;;;;;;;;;10521575;28;20402;-96
2023/08/16 16:01:16;;;;;;;6.32;5.72;;;;;;;;;;10522396;28;20405;-96
2023/08/16 16:06:18;;;;;;;6.18;5.57;;;;;;;;;;10536623;28;20398;-96
2023/08/16 16:11:27;;;;;;;6.55;5.95;;;;;;;;;;10520713;28;20410;-96
2023/08/16 16:16:30;;;;;;;6.20;5.70;;;;;;;;;;10499512;28;20404;-96
2023/08/16 16:21:34;;;;;;;7.22;5.95;;;;;;;;;;10504695;28;20411;-96
2023/08/16 16:26:38;;;;;;;7.40;6.28;;;;;;;;;;10527560;28;20928;-91
2023/08/16 16:31:41;;;;;;;6.88;6.18;;;;;;;;;;10521857;28;20514;-95
2023/08/16 16:36:43;;;;;;;6.38;5.80;;;;;;;;;;10526801;28;20402;-96
2023/08/16 16:41:48;;;;;;;7.00;6.30;;;;;;;;;;10511210;28;20398;-96
2023/08/16 16:46:51;;;;;;;6.78;6.18;;;;;;;;;;10494032;28;20416;-96
2023/08/16 16:51:55;;;;;;;7.10;6.45;;;;;;;;;;10511474;28;20403;-96
2023/08/16 16:57:03;;;;;;;7.50;6.70;;;;;;;;;;10505553;28;20398;-96
2023/08/16 17:02:07;;;;;;;6.73;6.13;;;;;;;;;;10513197;28;20402;-96
2023/08/16 17:07:10;;;;;;;6.97;6.28;;;;;;;;;;10496224;28;20461;-96
2023/08/16 17:12:14;;;;;;;7.18;6.07;;;;;;;;;;10491776;28;20464;-96
2023/08/16 17:17:16;;;;;;;6.78;6.18;;;;;;;;;;10481335;28;20453;-96
2023/08/16 17:22:19;;;;;;;7.03;6.32;;;;;;;;;;10490221;28;20408;-96
2023/08/16 17:27:23;;;;;;;7.50;6.70;;;;;;;;;;11385198;22;20403;-95
2023/08/16 17:32:26;;;;;;;6.95;6.30;;;;;;;;;;10588437;28;20475;-96
2023/08/16 17:37:28;;;;;;;8.53;6.30;;;;;;;;;;10570159;28;20806;-96
2023/08/16 17:42:32;;;;;;;7.33;6.53;;;;;;;;;;10566549;28;20396;-96
2023/08/16 17:47:34;;;;;;;8.35;6.55;;;;;;;;;;10583392;28;20410;-96
2023/08/16 17:52:37;;;;;;;7.37;6.60;;;;;;;;;;10584611;28;20407;-96
2023/08/16 17:57:41;;;;;;;7.27;6.50;;;;;;;;;;10583178;28;20400;-95
2023/08/16 18:02:44;;;;;;;8.30;6.53;;;;;;;;;;10617569;28;20394;-95
2023/08/16 18:07:46;;;;;;;7.28;6.35;;;;;;;;;;10591343;28;20935;-96
2023/08/16 18:12:50;;;;;;;8.48;6.72;;;;;;;;;;10589314;28;20453;-96
2023/08/16 18:17:53;;;;;;;8.07;6.43;;;;;;;;;;10578967;28;20413;-96
2023/08/16 18:22:58;;;;;;;9.10;6.80;;;;;;;;;;10572519;28;20406;-95
2023/08/16 18:28:02;;;;;;;7.95;6.72;;;;;;;;;;10570813;28;20432;-96
2023/08/16 18:33:05;;;;;;;7.55;6.85;;;;;;;;;;10577792;28;20401;-96
2023/08/16 18:38:07;;;;;;;7.40;6.70;;;;;;;;;;10572521;28;20393;-96
2023/08/16 18:43:11;;;;;;;7.50;6.68;;;;;;;;;;10576433;28;20399;-96
2023/08/16 18:48:14;;;;;;;8.23;7.20;;;;;;;;;;10574726;28;20410;-96
2023/08/16 18:53:16;;;;;;;7.85;6.50;;;;;;;;;;10580956;28;20421;-95
2023/08/16 18:58:20;;;;;;;7.60;6.82;;;;;;;;;;10565322;28;20403;-94
2023/08/16 19:03:22;;;;;;;8.23;7.27;;;;;;;;;;10559901;28;20401;-95
2023/08/16 19:08:25;;;;;;;6.88;6.20;;;;;;;;;;10562803;28;20392;-94
2023/08/16 19:13:29;;;;;;;9.52;7.38;;;;;;;;;;10577736;28;20861;-96
2023/08/16 19:18:31;;;;;;;8.35;7.20;;;;;;;;;;10584585;28;20403;-95
2023/08/16 19:23:33;;;;;;;8.45;7.47;;;;;;;;;;10593547;28;20452;-96
2023/08/16 19:28:37;;;;;;;8.23;7.38;;;;;;;;;;10580749;28;20408;-94
2023/08/16 19:33:40;;;;;;;9.02;7.68;;;;;;;;;;10576124;28;20444;-94
2023/08/16 19:38:42;;;;;;;10.52;7.85;;;;;;;;;;10562630;28;20762;-95
2023/08/16 19:43:46;;;;;;;10.02;7.95;;;;;;;;;;10558981;28;20408;-95
2023/08/16 19:48:48;;;;;;;9.30;8.32;;;;;;;;;;10560790;28;20453;-95
2023/08/16 19:53:51;;;;;;;10.32;9.23;;;;;;;;;;10572496;28;20762;-94
2023/08/16 19:58:56;;;;;;;11.98;10.63;;;;;;;;;;10610119;28;20380;-95
2023/08/16 20:03:59;;;;;;;13.55;9.93;;;;;;;;;;10568475;28;20448;-94
2023/08/16 20:09:01;;;;;;;11.60;10.07;;;;;;;;;;10550900;28;20480;-95
2023/08/16 20:14:05;;;;;;;13.27;9.23;;;;;;;;;;10567438;28;20404;-96
2023/08/16 20:19:08;;;;;;;13.75;11.55;;;;;;;;;;9462517;28;20491;-96
2023/08/16 20:24:10;;;;;;;13.25;10.98;;;;;;;;;;10559953;28;20404;-96
2023/08/16 20:29:14;;;;;;;9.90;8.90;;;;;;;;;;10561135;28;20422;-94
2023/08/16 20:34:21;;;;;;;8.68;7.20;;;;;;;;;;10569068;28;20455;-96
2023/08/16 20:39:23;;;;;;;7.15;6.40;;;;;;;;;;10564494;28;20402;-96
2023/08/16 20:44:27;;;;;;;6.93;6.22;;;;;;;;;;10577630;28;20408;-96
2023/08/16 20:49:29;;;;;;;6.82;5.78;;;;;;;;;;10565290;28;20451;-94
2023/08/16 20:54:32;;;;;;;8.23;5.45;;;;;;;;;;10576866;28;20452;-96
2023/08/16 20:59:36;;;;;;;6.38;5.40;;;;;;;;;;10579530;28;20437;-95
2023/08/16 21:04:38;;;;;;;6.53;5.05;;;;;;;;;;10567076;28;20929;-94
2023/08/16 21:09:41;;;;;;;5.90;5.30;;;;;;;;;;10566048;28;20526;-96
2023/08/16 21:14:46;;;;;;;6.17;5.30;;;;;;;;;;10577627;28;20402;-96
2023/08/16 21:19:49;;;;;;;6.40;5.63;;;;;;;;;;10581702;28;20460;-96
2023/08/16 21:24:52;;;;;;;6.70;5.57;;;;;;;;;;10566878;28;20398;-96
2023/08/16 21:29:56;;;;;;;7.43;6.28;;;;;;;;;;10569912;28;20946;-96
2023/08/16 21:34:58;;;;;;;7.93;6.32;;;;;;;;;;10568460;28;20463;-96
2023/08/16 21:40:01;;;;;;;7.85;6.68;;;;;;;;;;10560005;28;20933;-96
2023/08/16 21:45:06;;;;;;;7.18;6.47;;;;;;;;;;10561967;28;20935;-96
2023/08/16 21:50:09;;;;;;;6.93;6.18;;;;;;;;;;10564220;28;20411;-96
2023/08/16 21:55:11;;;;;;;7.30;6.43;;;;;;;;;;10563210;28;20459;-96
2023/08/16 22:00:17;;;;;;;7.30;6.60;;;;;;;;;;10559143;28;20452;-96
2023/08/16 22:05:19;;;;;;;8.40;7.00;;;;;;;;;;10564739;28;20467;-96
2023/08/16 22:10:22;;;;;;;7.43;6.70;;;;;;;;;;10570959;28;20407;-95
2023/08/16 22:15:26;;;;;;;9.10;6.90;;;;;;;;;;10584658;28;20426;-96
2023/08/16 22:20:28;;;;;;;7.40;6.70;;;;;;;;;;10588659;28;20399;-95
2023/08/16 22:25:30;;;;;;;7.80;7.00;;;;;;;;;;10572886;28;20418;-96
2023/08/16 22:30:34;;;;;;;8.75;6.70;;;;;;;;;;10565884;28;20412;-95
2023/08/16 22:35:37;;;;;;;9.03;7.00;;;;;;;;;;10571635;28;20397;-96
2023/08/16 22:40:39;;;;;;;8.73;6.97;;;;;;;;;;10572676;28;20462;-96
2023/08/16 22:45:43;;;;;;;8.98;7.10;;;;;;;;;;10568774;28;20412;-95
2023/08/16 22:50:45;;;;;;;7.80;7.00;;;;;;;;;;10567905;28;20473;-96
2023/08/16 22:55:48;;;;;;;8.40;7.18;;;;;;;;;;10565596;28;20394;-96
2023/08/16 23:00:52;;;;;;;8.07;7.27;;;;;;;;;;10570097;28;20597;-96
2023/08/16 23:05:54;;;;;;;9.13;8.20;;;;;;;;;;10570689;28;20410;-96
2023/08/16 23:10:57;;;;;;;9.07;8.02;;;;;;;;;;10566768;28;20420;-96
2023/08/16 23:16:01;;;;;;;8.03;7.23;;;;;;;;;;10566452;28;20900;-96
2023/08/16 23:21:03;;;;;;;8.63;7.72;;;;;;;;;;10566016;27;20461;-96
2023/08/16 23:26:06;;;;;;;8.55;7.45;;;;;;;;;;10565747;28;20886;-96
2023/08/16 23:31:10;;;;;;;9.15;7.55;;;;;;;;;;10560952;28;20890;-96
2023/08/16 23:36:12;;;;;;;9.25;8.25;;;;;;;;;;10564712;28;20428;-96
2023/08/16 23:41:15;;;;;;;9.30;8.40;;;;;;;;;;10564479;28;20399;-96
2023/08/16 23:46:19;;;;;;;8.93;7.72;;;;;;;;;;10562881;28;20396;-95
2023/08/16 23:51:22;;;;;;;10.27;8.70;;;;;;;;;;10561344;28;20477;-95
2023/08/16 23:56:24;;;;;;;10.50;8.40;;;;;;;;;;10563437;28;20393;-95
